Main page
METAR-TAF:

METAR-TAF

Airports :

Damascus International Airport

Damascus, Syria

latitude: 33-25N, longitude: 036-31E, elevation: 608 m

Current weather observation

The report was made 9 minutes ago, at 23:00 UTC
Wind 18 kt from the Southwest
Temperature 22°C
Humidity 69%
Pressure 1008 hPa
Visibility 10 km or more
no clouds below 1500 m and no cumulonimbus

METAR: OSDI 092300Z 22018KT CAVOK 22/16 Q1008

Time: 02:09 (23:09 UTC)

Forecast

The report was made 7 hours and 9 minutes ago, at 16:00 UTC
Forecast valid from 09 at 18 UTC to 10 at 24 UTC
Wind 18 kt from the Southwest with gusts up to 28 kt
Visibility 10 km or more
no clouds below 1500 m and no cumulonimbus

TAF: OSDI 091600Z 0918/1024 22018G28KT CAVOK

Weather observations and forecasts of more than 4000 airports (METAR and TAF reports).

The available stations are represented by yellow and red dots on the map.

Hover mouse over dot to see the name of the station.

Then click to see weather observations and forecasts.

To change the map : click on the green buttons with a black cross to zoom in, on the green button with a dash to zoom out, or on the green arrows for adjacent maps.


METAR-TAF: